Time;durP1;ratioP1;P1;durP2;ratioP2;P2;SDS_P1;SDS_P2;PMS_P1;PMS_P2;Temp;Humidity;BMP_temperature;BMP_pressure;BME280_temperature;BME280_humidity;BME280_pressure;Samples;Min_cycle;Max_cycle;Signal;HPM_P1;HPM_P2
2022/03/17 00:00:35;;;;;;;28.77;18.57;;;5.00;99.90;;;;;;4959248;28;20182;-79
2022/03/17 00:03:01;;;;;;;29.83;19.47;;;4.90;99.90;;;;;;4958569;29;20663;-80
2022/03/17 00:05:27;;;;;;;28.60;20.83;;;4.90;99.90;;;;;;4957661;28;20256;-80
2022/03/17 00:07:52;;;;;;;30.40;19.73;;;5.00;99.90;;;;;;4957542;28;20182;-79
2022/03/17 00:10:18;;;;;;;37.77;21.33;;;5.00;99.90;;;;;;4958000;29;20564;-79
2022/03/17 00:12:45;;;;;;;30.73;20.17;;;5.00;99.90;;;;;;4956996;28;20214;-80
2022/03/17 00:15:11;;;;;;;30.80;21.23;;;4.90;99.90;;;;;;4957650;29;20640;-79
2022/03/17 00:17:37;;;;;;;32.80;21.67;;;4.90;99.90;;;;;;4958907;29;20186;-79
2022/03/17 00:20:10;;;;;;;31.80;21.47;;;5.00;99.90;;;;;;4957692;29;20204;-80
2022/03/17 00:22:36;;;;;;;31.53;21.67;;;5.00;99.90;;;;;;4957814;28;20174;-80
2022/03/17 00:25:05;;;;;;;32.50;21.67;;;5.00;99.90;;;;;;4958739;28;20249;-79
2022/03/17 00:27:31;;;;;;;31.57;21.03;;;5.00;99.90;;;;;;4958698;28;20260;-79
2022/03/17 00:29:57;;;;;;;32.87;20.23;;;5.00;99.90;;;;;;4957944;28;20244;-80
2022/03/17 00:32:23;;;;;;;32.67;20.53;;;5.00;99.90;;;;;;4958948;28;20175;-80
2022/03/17 00:37:33;;;;;;;27.27;19.13;;;4.90;99.90;;;;;;4959265;29;20181;-79
2022/03/17 00:39:59;;;;;;;35.07;20.53;;;4.90;99.90;;;;;;4957716;29;20186;-79
2022/03/17 00:42:27;;;;;;;28.70;20.17;;;4.90;99.90;;;;;;4958997;28;20542;-81
2022/03/17 00:44:54;;;;;;;29.40;20.60;;;4.90;99.90;;;;;;4958158;29;20611;-79
2022/03/17 00:47:20;;;;;;;28.53;19.23;;;4.90;99.90;;;;;;4960905;28;20197;-79
2022/03/17 00:49:46;;;;;;;27.10;18.43;;;5.00;99.90;;;;;;4958276;28;20615;-79
2022/03/17 00:52:12;;;;;;;27.10;18.13;;;4.90;99.90;;;;;;4958764;28;20213;-80
2022/03/17 00:54:42;;;;;;;29.30;18.83;;;5.00;99.90;;;;;;4959169;28;20288;-79
2022/03/17 00:57:09;;;;;;;28.03;18.40;;;4.90;99.90;;;;;;4962233;29;20228;-80
2022/03/17 00:59:36;;;;;;;25.70;17.43;;;4.90;99.90;;;;;;4962988;28;20190;-79
2022/03/17 01:02:04;;;;;;;26.97;18.60;;;5.00;99.90;;;;;;4963124;29;20182;-79
2022/03/17 01:04:29;;;;;;;26.80;18.83;;;5.00;99.90;;;;;;4961911;29;20178;-79
2022/03/17 01:06:55;;;;;;;26.27;17.50;;;5.00;99.90;;;;;;4960819;28;20192;-79
2022/03/17 01:09:21;;;;;;;26.47;17.97;;;5.00;99.90;;;;;;4961634;28;20207;-79
2022/03/17 01:11:46;;;;;;;26.90;18.50;;;5.00;99.90;;;;;;4960425;29;20178;-79
2022/03/17 01:14:16;;;;;;;24.53;17.07;;;5.00;99.90;;;;;;4960912;28;20200;-80
2022/03/17 01:16:42;;;;;;;23.47;16.33;;;5.00;99.90;;;;;;4961642;28;20202;-79
2022/03/17 01:19:07;;;;;;;27.47;16.80;;;5.00;99.90;;;;;;4960691;28;20190;-79
2022/03/17 01:21:34;;;;;;;24.30;16.30;;;4.90;99.90;;;;;;4960928;29;20245;-79
2022/03/17 01:24:00;;;;;;;26.70;17.40;;;4.90;99.90;;;;;;4961646;28;20180;-79
2022/03/17 01:26:25;;;;;;;27.93;17.40;;;4.80;99.90;;;;;;4959933;29;20235;-79
2022/03/17 01:28:52;;;;;;;23.40;16.27;;;4.80;99.90;;;;;;4961761;28;20282;-79
2022/03/17 01:31:22;;;;;;;26.43;16.77;;;4.80;99.90;;;;;;4960571;29;20184;-80
2022/03/17 01:33:47;;;;;;;26.77;17.27;;;4.80;99.90;;;;;;4960459;29;20189;-79
2022/03/17 01:36:13;;;;;;;24.20;16.33;;;4.90;99.90;;;;;;4961334;28;20201;-80
2022/03/17 01:38:38;;;;;;;25.90;17.23;;;4.90;99.90;;;;;;4960311;29;20213;-80
2022/03/17 01:41:04;;;;;;;24.60;16.83;;;4.90;99.90;;;;;;4959775;29;20597;-79
2022/03/17 01:43:30;;;;;;;26.37;17.20;;;4.90;99.90;;;;;;4960035;29;20272;-79
2022/03/17 01:45:55;;;;;;;25.47;17.30;;;4.90;99.90;;;;;;4961228;28;20201;-80
2022/03/17 01:48:21;;;;;;;23.37;16.13;;;4.90;99.90;;;;;;4961022;29;20201;-79
2022/03/17 01:50:49;;;;;;;22.70;15.27;;;4.90;99.90;;;;;;4960163;28;20209;-79
2022/03/17 01:53:14;;;;;;;21.33;15.67;;;4.80;99.90;;;;;;4960755;28;20185;-79
2022/03/17 01:55:40;;;;;;;20.03;15.20;;;4.80;99.90;;;;;;4960473;28;20205;-80
2022/03/17 01:58:07;;;;;;;22.53;14.37;;;4.80;99.90;;;;;;4959177;29;20211;-80
2022/03/17 02:00:34;;;;;;;19.10;14.47;;;4.70;99.90;;;;;;4959089;29;20543;-79
2022/03/17 02:03:03;;;;;;;24.57;15.37;;;4.70;99.90;;;;;;4959400;28;20707;-80
2022/03/17 02:05:30;;;;;;;20.40;14.23;;;4.70;99.90;;;;;;4958718;28;20201;-79
2022/03/17 02:07:56;;;;;;;34.93;15.57;;;4.80;99.90;;;;;;4958477;28;20186;-79
2022/03/17 02:10:22;;;;;;;22.53;16.20;;;4.70;99.90;;;;;;4959969;28;20549;-79
2022/03/17 02:15:33;;;;;;;21.10;13.67;;;4.70;99.90;;;;;;4960182;29;20237;-80
2022/03/17 02:18:00;;;;;;;22.13;14.57;;;4.70;99.90;;;;;;4958703;29;20191;-79
2022/03/17 02:20:26;;;;;;;24.60;14.87;;;4.70;99.90;;;;;;4958726;28;20180;-79
2022/03/17 02:25:33;;;;;;;21.03;14.00;;;4.70;99.90;;;;;;4959733;29;20595;-80
2022/03/17 02:25:41;;;;;;;25.03;16.10;;;4.70;99.90;;;;;;4964786;29;20207;-79
2022/03/17 02:28:07;;;;;;;19.60;14.97;;;4.70;99.90;;;;;;4968448;28;20202;-79
2022/03/17 02:30:37;;;;;;;23.33;15.57;;;4.80;99.90;;;;;;4970071;28;20186;-79
2022/03/17 02:33:11;;;;;;;25.17;16.33;;;4.70;99.90;;;;;;4962544;29;20190;-80
2022/03/17 02:35:39;;;;;;;23.57;16.50;;;4.70;99.90;;;;;;4960482;29;20201;-80
2022/03/17 02:38:06;;;;;;;24.30;15.63;;;4.70;99.90;;;;;;4959289;29;20192;-79
2022/03/17 02:40:34;;;;;;;24.57;16.53;;;4.70;99.90;;;;;;4960722;28;20178;-79
2022/03/17 02:43:00;;;;;;;27.93;17.57;;;4.80;99.90;;;;;;4960337;28;20231;-79
2022/03/17 02:45:26;;;;;;;24.40;16.73;;;4.80;99.90;;;;;;4959097;29;20715;-79
2022/03/17 02:47:52;;;;;;;23.63;15.83;;;4.80;99.90;;;;;;4960151;28;20233;-79
2022/03/17 02:50:18;;;;;;;23.77;15.73;;;4.80;99.90;;;;;;4960869;28;20202;-79
2022/03/17 02:52:44;;;;;;;22.87;15.27;;;4.70;99.90;;;;;;4958604;29;20390;-79
2022/03/17 02:55:15;;;;;;;29.37;17.00;;;4.60;99.90;;;;;;4958575;29;20217;-80
2022/03/17 02:57:41;;;;;;;24.10;16.30;;;4.60;99.90;;;;;;4959458;28;20186;-79
2022/03/17 03:00:09;;;;;;;23.13;16.10;;;4.60;99.90;;;;;;4960776;28;20205;-79
2022/03/17 03:02:36;;;;;;;25.50;16.63;;;4.60;99.90;;;;;;4960683;28;20656;-80
2022/03/17 03:05:03;;;;;;;24.47;16.27;;;4.50;99.90;;;;;;4958670;28;20205;-79
2022/03/17 03:07:29;;;;;;;25.33;15.53;;;4.50;99.90;;;;;;4959019;28;20193;-79
2022/03/17 03:09:55;;;;;;;23.17;15.40;;;4.60;99.90;;;;;;4959876;28;20780;-80
2022/03/17 03:12:21;;;;;;;23.77;16.33;;;4.50;99.90;;;;;;4959929;28;20237;-80
2022/03/17 03:14:47;;;;;;;25.93;16.37;;;4.50;99.90;;;;;;4959732;28;20578;-79
2022/03/17 03:17:13;;;;;;;23.27;16.33;;;4.60;99.90;;;;;;4959526;28;20177;-80
2022/03/17 03:19:39;;;;;;;26.50;16.67;;;4.60;99.90;;;;;;4960233;28;20241;-79
2022/03/17 03:22:05;;;;;;;23.07;15.47;;;4.50;99.90;;;;;;4958951;28;20190;-80
2022/03/17 03:24:30;;;;;;;24.33;15.23;;;4.50;99.90;;;;;;4960174;28;20185;-80
2022/03/17 03:26:56;;;;;;;24.60;14.87;;;4.50;99.90;;;;;;4959311;28;20193;-79
2022/03/17 03:29:27;;;;;;;19.90;14.63;;;4.40;99.90;;;;;;4960270;28;20203;-79
2022/03/17 03:31:56;;;;;;;21.73;15.53;;;4.40;99.90;;;;;;4959165;28;20181;-79
2022/03/17 03:34:23;;;;;;;23.03;15.87;;;4.50;99.90;;;;;;4958918;28;20202;-79
2022/03/17 03:39:33;;;;;;;30.10;16.57;;;4.50;99.90;;;;;;4959709;29;20172;-79
2022/03/17 03:42:00;;;;;;;27.87;17.63;;;4.50;99.90;;;;;;4957753;28;20187;-80
2022/03/17 03:44:25;;;;;;;25.20;16.53;;;4.50;99.90;;;;;;4958924;28;20178;-80
2022/03/17 03:46:51;;;;;;;18.73;13.93;;;4.60;99.90;;;;;;4959163;28;20201;-79
2022/03/17 03:49:18;;;;;;;25.77;15.00;;;4.40;99.90;;;;;;4959112;28;20205;-80
2022/03/17 03:51:43;;;;;;;22.67;15.27;;;4.30;99.90;;;;;;4958961;28;20670;-79
2022/03/17 03:54:18;;;;;;;25.57;15.73;;;4.30;99.90;;;;;;4957345;29;20181;-79
2022/03/17 03:56:44;;;;;;;22.20;15.60;;;4.40;99.90;;;;;;4958900;28;20209;-79
2022/03/17 03:59:21;;;;;;;22.77;15.57;;;4.30;99.90;;;;;;4958358;28;20178;-79
2022/03/17 04:01:51;;;;;;;23.43;14.37;;;4.30;99.90;;;;;;4959008;28;20162;-79
2022/03/17 04:04:18;;;;;;;19.93;14.73;;;4.40;99.90;;;;;;4959086;28;20280;-79
2022/03/17 04:06:47;;;;;;;22.57;15.77;;;4.40;99.90;;;;;;4958247;28;20197;-79
2022/03/17 04:09:14;;;;;;;22.77;15.80;;;4.40;99.90;;;;;;4957254;29;20204;-79
2022/03/17 04:11:41;;;;;;;25.00;15.67;;;4.40;99.90;;;;;;4958853;28;20189;-79
2022/03/17 04:14:07;;;;;;;22.00;15.07;;;4.40;99.90;;;;;;4958283;28;20178;-80
2022/03/17 04:16:34;;;;;;;20.80;14.33;;;4.40;99.90;;;;;;4957213;28;20668;-79
2022/03/17 04:18:59;;;;;;;21.93;14.30;;;4.30;99.90;;;;;;4957703;29;20189;-79
2022/03/17 04:21:25;;;;;;;25.63;13.40;;;4.30;99.90;;;;;;4958421;28;20177;-79
2022/03/17 04:23:51;;;;;;;21.40;13.63;;;4.30;99.90;;;;;;4956843;28;20185;-79
2022/03/17 04:26:17;;;;;;;21.57;14.03;;;4.30;99.90;;;;;;4958674;28;20601;-79
2022/03/17 04:28:42;;;;;;;20.63;13.97;;;4.30;99.90;;;;;;4957639;28;20221;-79
2022/03/17 04:31:08;;;;;;;23.03;16.07;;;4.30;99.90;;;;;;4957519;29;20278;-79
2022/03/17 04:33:34;;;;;;;23.47;14.93;;;4.30;99.90;;;;;;4957325;29;20643;-79
2022/03/17 04:36:02;;;;;;;26.70;15.93;;;4.40;99.90;;;;;;4958610;28;20204;-79
2022/03/17 04:38:28;;;;;;;25.87;15.93;;;4.40;99.90;;;;;;4957645;28;20185;-79
2022/03/17 08:28:54;;;;;;;14.93;11.30;;;6.40;99.90;;;;;;5136754;27;20275;-79
2022/03/17 08:31:20;;;;;;;18.40;10.73;;;6.50;99.90;;;;;;5118395;28;20263;-79
2022/03/17 08:33:45;;;;;;;15.77;11.70;;;6.70;99.90;;;;;;5117110;28;20183;-79
2022/03/17 08:36:11;;;;;;;19.53;11.10;;;6.90;99.90;;;;;;5136383;28;20188;-79
2022/03/17 08:38:37;;;;;;;19.30;11.77;;;7.00;99.90;;;;;;5135725;27;20175;-79
2022/03/17 08:41:02;;;;;;;15.10;11.10;;;7.20;99.90;;;;;;5135893;27;20175;-79
2022/03/17 08:43:28;;;;;;;18.07;11.33;;;7.30;99.90;;;;;;5135920;27;20261;-79
2022/03/17 08:51:26;;;;;;;15.43;11.07;;;7.50;99.90;;;;;;5136180;28;20171;-80
2022/03/17 08:53:52;;;;;;;17.03;12.07;;;7.70;99.90;;;;;;5135960;27;20191;-80
2022/03/17 08:56:18;;;;;;;12.80;10.47;;;7.80;99.90;;;;;;5135848;27;20197;-80
2022/03/17 08:58:43;;;;;;;13.03;10.00;;;7.90;99.90;;;;;;5134349;28;20281;-79
2022/03/17 09:01:10;;;;;;;14.37;10.27;;;7.90;99.90;;;;;;5135589;28;20185;-80
2022/03/17 09:03:36;;;;;;;15.07;10.93;;;7.80;99.90;;;;;;5134291;28;20180;-79
2022/03/17 09:06:02;;;;;;;19.30;11.47;;;7.70;99.90;;;;;;5134629;28;20195;-80
2022/03/17 09:08:28;;;;;;;19.30;11.43;;;7.70;99.90;;;;;;5137647;27;20207;-80
2022/03/17 09:10:55;;;;;;;16.57;10.73;;;7.70;99.90;;;;;;5134638;28;20176;-79
2022/03/17 09:13:25;;;;;;;17.53;11.77;;;7.60;99.90;;;;;;5135632;27;20170;-79
2022/03/17 09:15:53;;;;;;;14.37;11.70;;;7.40;99.90;;;;;;5134620;28;20250;-80
2022/03/17 09:18:20;;;;;;;14.80;12.33;;;7.30;99.90;;;;;;5134508;28;20545;-80
2022/03/17 09:20:47;;;;;;;18.60;12.37;;;7.40;99.90;;;;;;5134587;28;20192;-80
2022/03/17 09:23:13;;;;;;;17.50;12.87;;;7.40;99.90;;;;;;5134695;28;20202;-80
2022/03/17 09:25:39;;;;;;;12.53;10.60;;;7.40;99.90;;;;;;5134539;28;20247;-79
2022/03/17 09:28:05;;;;;;;21.07;12.87;;;7.50;99.90;;;;;;5135532;27;20292;-80
2022/03/17 09:30:32;;;;;;;16.83;12.20;;;7.50;99.90;;;;;;5134376;28;20176;-80
2022/03/17 09:32:59;;;;;;;17.60;13.23;;;7.40;99.90;;;;;;5135024;28;20179;-80
2022/03/17 09:35:26;;;;;;;16.90;13.43;;;7.50;99.90;;;;;;5135977;27;20718;-81
2022/03/17 09:37:51;;;;;;;17.70;12.97;;;7.60;99.90;;;;;;5136702;27;20204;-80
2022/03/17 09:40:17;;;;;;;18.03;13.13;;;7.60;99.90;;;;;;5120754;28;20179;-81
2022/03/17 09:42:43;;;;;;;18.80;13.23;;;7.60;99.90;;;;;;5122452;28;20223;-80
2022/03/17 09:45:11;;;;;;;16.23;12.60;;;7.60;99.90;;;;;;5121991;28;20236;-80
2022/03/17 09:47:42;;;;;;;17.17;13.90;;;7.60;99.90;;;;;;5124746;28;20230;-80
2022/03/17 09:50:11;;;;;;;20.63;12.67;;;7.70;99.90;;;;;;5119914;28;20523;-81
2022/03/17 09:52:39;;;;;;;22.90;14.80;;;7.70;99.90;;;;;;5119362;28;20189;-81
2022/03/17 09:55:07;;;;;;;19.20;14.10;;;7.80;99.90;;;;;;5120949;28;20197;-81
2022/03/17 09:57:33;;;;;;;21.50;14.27;;;7.80;99.90;;;;;;5120766;28;20194;-80
2022/03/17 09:59:59;;;;;;;20.43;14.43;;;7.80;99.90;;;;;;5120851;28;20614;-80
2022/03/17 10:02:25;;;;;;;18.37;14.50;;;7.80;99.90;;;;;;5119709;28;20184;-81
2022/03/17 10:04:52;;;;;;;18.77;14.03;;;7.90;99.90;;;;;;5119564;28;20221;-80
2022/03/17 10:07:21;;;;;;;19.07;14.90;;;7.80;99.90;;;;;;5118873;28;20201;-81
2022/03/17 10:09:48;;;;;;;20.73;13.93;;;7.80;99.90;;;;;;5120558;28;20255;-80
2022/03/17 10:12:16;;;;;;;19.10;15.03;;;7.80;99.90;;;;;;5121355;28;20253;-80
2022/03/17 10:14:42;;;;;;;19.73;15.47;;;7.80;99.90;;;;;;5119094;28;20272;-80
2022/03/17 10:17:28;;;;;;;19.63;14.60;;;7.80;99.90;;;;;;5120698;28;20177;-80
2022/03/17 10:20:18;;;;;;;19.00;14.50;;;7.80;99.90;;;;;;5119663;28;20511;-81
2022/03/17 10:22:52;;;;;;;19.03;14.83;;;7.80;99.90;;;;;;5119430;28;20185;-80
2022/03/17 10:25:25;;;;;;;20.70;14.70;;;7.80;99.90;;;;;;5120349;28;20273;-80
2022/03/17 10:27:54;;;;;;;19.17;15.40;;;7.90;99.90;;;;;;5118869;28;20222;-80
2022/03/17 10:30:33;;;;;;;19.60;14.67;;;7.90;99.90;;;;;;5119104;28;20182;-80
2022/03/17 10:33:03;;;;;;;21.13;15.20;;;7.90;99.90;;;;;;5121410;28;20193;-80
2022/03/17 10:35:36;;;;;;;20.67;15.10;;;8.00;99.90;;;;;;5119760;28;20601;-80
2022/03/17 10:38:15;;;;;;;23.67;15.40;;;8.00;99.90;;;;;;5120386;28;20156;-80
2022/03/17 10:40:41;;;;;;;21.03;15.40;;;8.10;99.90;;;;;;5117864;28;20194;-80
2022/03/17 10:43:17;;;;;;;21.93;15.80;;;8.10;99.90;;;;;;5119864;28;20230;-80
2022/03/17 10:45:43;;;;;;;21.30;16.13;;;8.30;99.90;;;;;;5118273;28;20209;-80
2022/03/17 10:48:10;;;;;;;23.03;15.60;;;8.30;99.90;;;;;;5119485;28;20195;-80
2022/03/17 10:50:41;;;;;;;24.37;16.90;;;8.40;99.90;;;;;;5118001;28;20269;-80
2022/03/17 10:53:07;;;;;;;22.97;16.97;;;8.50;99.90;;;;;;5120822;28;20185;-80
2022/03/17 10:55:36;;;;;;;24.07;16.13;;;8.60;99.90;;;;;;5119365;28;20194;-80
2022/03/17 10:58:19;;;;;;;24.67;18.27;;;8.60;99.90;;;;;;5119378;28;20702;-80
2022/03/17 11:00:52;;;;;;;20.43;15.43;;;8.80;99.90;;;;;;5119725;28;20182;-80
2022/03/17 11:03:19;;;;;;;29.30;17.73;;;8.90;99.90;;;;;;5119756;28;20178;-81
2022/03/17 11:05:45;;;;;;;22.80;17.67;;;9.00;99.90;;;;;;5117457;28;20683;-80
2022/03/17 11:08:12;;;;;;;29.20;18.77;;;8.90;99.90;;;;;;5117427;28;20735;-80
2022/03/17 11:10:41;;;;;;;25.23;17.97;;;8.80;99.90;;;;;;5117449;28;20531;-80
2022/03/17 11:13:11;;;;;;;22.37;16.57;;;8.80;99.90;;;;;;5120062;28;20176;-80
2022/03/17 11:15:39;;;;;;;27.80;18.90;;;8.80;99.90;;;;;;5119569;28;20187;-80
2022/03/17 11:18:07;;;;;;;28.10;18.67;;;8.90;99.90;;;;;;5118054;28;20265;-81
2022/03/17 11:20:33;;;;;;;29.70;18.60;;;9.00;99.90;;;;;;5117826;28;20623;-80
2022/03/17 11:23:09;;;;;;;29.80;21.00;;;8.90;99.90;;;;;;5118009;28;20185;-80
2022/03/17 11:25:35;;;;;;;28.50;19.33;;;8.90;99.90;;;;;;5118008;28;20207;-80
2022/03/17 11:28:03;;;;;;;31.63;20.67;;;8.90;99.90;;;;;;5117553;28;20213;-80
2022/03/17 11:30:43;;;;;;;28.13;19.90;;;8.90;99.90;;;;;;5118427;28;20179;-80
2022/03/17 11:33:28;;;;;;;29.20;19.47;;;8.90;99.90;;;;;;5118206;28;20159;-80
2022/03/17 11:36:08;;;;;;;27.57;19.37;;;8.90;99.90;;;;;;5116727;28;20195;-80
2022/03/17 11:38:38;;;;;;;28.90;18.93;;;8.90;99.90;;;;;;5117254;28;20168;-79
2022/03/17 11:41:15;;;;;;;27.80;19.87;;;8.90;99.90;;;;;;5118531;28;20513;-80
2022/03/17 11:43:47;;;;;;;28.50;20.53;;;8.90;99.90;;;;;;5118512;28;20223;-80
2022/03/17 11:46:18;;;;;;;29.50;19.87;;;8.90;99.90;;;;;;5117274;28;20207;-80
2022/03/17 11:48:44;;;;;;;32.47;21.77;;;8.90;99.90;;;;;;5119348;28;20199;-79
2022/03/17 11:51:13;;;;;;;27.03;19.50;;;9.00;99.90;;;;;;5117169;28;20175;-80
2022/03/17 11:53:49;;;;;;;38.67;26.00;;;9.00;99.90;;;;;;5119213;28;20620;-81
2022/03/17 11:56:54;;;;;;;33.60;20.90;;;9.10;99.90;;;;;;5118322;28;20222;-81
2022/03/17 11:59:30;;;;;;;29.70;19.73;;;9.00;99.90;;;;;;5076515;28;20658;-80
2022/03/17 12:01:56;;;;;;;32.90;21.37;;;9.00;99.90;;;;;;5074439;28;20228;-79
2022/03/17 12:04:30;;;;;;;34.20;21.70;;;9.00;99.90;;;;;;5098099;28;20187;-80
2022/03/17 12:07:20;;;;;;;30.70;20.57;;;9.00;99.90;;;;;;5116617;28;20294;-80
2022/03/17 12:09:46;;;;;;;33.67;21.90;;;8.90;99.90;;;;;;5118794;28;20156;-80
2022/03/17 12:12:33;;;;;;;32.40;22.47;;;8.90;99.90;;;;;;5117365;28;20211;-80
2022/03/17 12:15:00;;;;;;;32.07;22.50;;;8.80;99.90;;;;;;5116346;28;20231;-80
2022/03/17 12:17:27;;;;;;;33.70;22.60;;;8.60;99.90;;;;;;5117509;28;20186;-81
2022/03/17 12:20:05;;;;;;;32.63;22.97;;;8.60;99.90;;;;;;5117925;28;20179;-80
2022/03/17 12:22:39;;;;;;;36.47;23.40;;;8.60;99.90;;;;;;5117706;28;20707;-80
2022/03/17 12:25:14;;;;;;;36.83;22.87;;;8.60;99.90;;;;;;5117134;28;20202;-80
2022/03/17 12:27:40;;;;;;;33.33;22.33;;;8.40;99.90;;;;;;5116465;28;20215;-80
2022/03/17 12:30:12;;;;;;;34.67;23.27;;;8.40;99.90;;;;;;5116625;28;20634;-80
2022/03/17 12:32:47;;;;;;;34.33;22.40;;;8.40;99.90;;;;;;5116312;28;20252;-80
2022/03/17 12:35:13;;;;;;;35.87;23.17;;;8.60;99.90;;;;;;5115341;28;20563;-80
2022/03/17 12:37:42;;;;;;;36.73;23.83;;;8.70;99.90;;;;;;5115092;28;20184;-80
2022/03/17 12:40:15;;;;;;;39.40;25.27;;;8.80;99.90;;;;;;5116824;28;20326;-80
2022/03/17 12:42:44;;;;;;;39.67;24.03;;;8.90;99.90;;;;;;5116843;28;20189;-81
2022/03/17 12:45:11;;;;;;;32.03;21.07;;;9.00;99.90;;;;;;5116568;28;20690;-81
2022/03/17 12:47:39;;;;;;;34.10;23.50;;;9.00;99.90;;;;;;5116369;28;20290;-80
2022/03/17 12:50:09;;;;;;;34.53;22.90;;;8.90;99.90;;;;;;5117491;28;20223;-80
2022/03/17 12:52:36;;;;;;;37.97;24.70;;;8.90;99.90;;;;;;5118056;28;20180;-80
2022/03/17 12:55:05;;;;;;;38.13;24.50;;;8.80;99.90;;;;;;5116056;28;20684;-80
2022/03/17 12:57:32;;;;;;;36.73;22.23;;;8.90;99.90;;;;;;5117610;28;20653;-81
2022/03/17 12:59:59;;;;;;;36.97;23.63;;;9.00;99.90;;;;;;5117170;28;20200;-80
2022/03/17 13:02:26;;;;;;;32.37;22.47;;;9.00;99.90;;;;;;5116614;28;20179;-80
2022/03/17 13:04:57;;;;;;;36.80;22.97;;;9.00;99.90;;;;;;5117445;28;20202;-81
2022/03/17 13:07:25;;;;;;;41.07;25.10;;;9.10;99.90;;;;;;5117192;28;20282;-81
2022/03/17 13:09:51;;;;;;;37.73;24.30;;;9.10;99.90;;;;;;5118006;28;20180;-80
2022/03/17 13:15:11;;;;;;;33.83;22.63;;;9.20;99.90;;;;;;5121550;28;20210;-80
2022/03/17 13:17:49;;;;;;;37.43;24.67;;;9.10;99.90;;;;;;5120615;28;20175;-81
2022/03/17 13:20:15;;;;;;;38.40;24.80;;;9.00;99.90;;;;;;5120568;28;20206;-80
2022/03/17 13:22:42;;;;;;;44.03;25.63;;;9.00;99.90;;;;;;5121831;28;20186;-80
2022/03/17 13:25:11;;;;;;;38.70;25.73;;;8.90;99.90;;;;;;5120096;28;20209;-80
2022/03/17 13:27:41;;;;;;;39.57;25.13;;;8.90;99.90;;;;;;5120218;28;20215;-81
2022/03/17 13:30:12;;;;;;;38.40;25.83;;;8.90;99.90;;;;;;5120411;28;20276;-81
2022/03/17 13:32:39;;;;;;;38.60;25.37;;;9.00;99.90;;;;;;5120576;28;20168;-80
2022/03/17 13:35:07;;;;;;;40.77;26.07;;;9.00;99.90;;;;;;5120695;28;20199;-80
2022/03/17 13:37:44;;;;;;;38.57;24.77;;;8.90;99.90;;;;;;5120040;28;20195;-81
2022/03/17 13:40:16;;;;;;;39.50;25.87;;;8.90;99.90;;;;;;5119916;28;20610;-80
2022/03/17 13:43:04;;;;;;;39.30;26.63;;;8.90;99.90;;;;;;5121159;28;20164;-81
2022/03/17 13:45:35;;;;;;;39.27;24.30;;;8.80;99.90;;;;;;5119262;28;20195;-80
2022/03/17 13:48:06;;;;;;;39.53;25.93;;;8.70;99.90;;;;;;5120713;28;20206;-80
2022/03/17 13:50:42;;;;;;;41.83;27.27;;;8.80;99.90;;;;;;5119721;28;20206;-80
2022/03/17 13:53:12;;;;;;;39.97;25.63;;;8.80;99.90;;;;;;5118281;28;20212;-80
2022/03/17 13:55:45;;;;;;;45.20;27.73;;;8.80;99.90;;;;;;5120149;28;20732;-81
2022/03/17 13:58:37;;;;;;;41.47;25.50;;;8.70;99.90;;;;;;5118345;28;20189;-80
2022/03/17 14:01:21;;;;;;;41.47;27.00;;;8.70;99.90;;;;;;5116764;28;20184;-81
2022/03/17 14:04:02;;;;;;;39.37;26.83;;;8.70;99.90;;;;;;5116499;28;20182;-80
2022/03/17 14:06:35;;;;;;;41.67;27.97;;;8.60;99.90;;;;;;5119670;28;20278;-81
2022/03/17 14:09:06;;;;;;;45.87;27.53;;;8.60;99.90;;;;;;5118748;28;20213;-81
2022/03/17 14:11:33;;;;;;;44.03;26.80;;;8.60;99.90;;;;;;5120194;28;20158;-81
2022/03/17 14:14:04;;;;;;;42.73;28.13;;;8.60;99.90;;;;;;5120152;28;20177;-81
2022/03/17 14:16:33;;;;;;;45.53;28.00;;;8.60;99.90;;;;;;5118864;28;20203;-81
2022/03/17 14:19:00;;;;;;;36.53;25.83;;;8.60;99.90;;;;;;5120147;28;20180;-81
2022/03/17 14:21:27;;;;;;;40.57;27.10;;;8.60;99.90;;;;;;5122172;28;20190;-80
2022/03/17 14:24:13;;;;;;;39.33;26.23;;;8.60;99.90;;;;;;5122502;28;20620;-80
2022/03/17 14:26:46;;;;;;;38.60;26.67;;;8.70;99.90;;;;;;5117713;28;20692;-80
2022/03/17 14:29:17;;;;;;;39.67;28.13;;;8.60;99.90;;;;;;5119196;28;20284;-80
2022/03/17 14:31:44;;;;;;;43.73;28.03;;;8.60;99.90;;;;;;5119144;28;20171;-81
2022/03/17 14:34:11;;;;;;;42.40;27.87;;;8.60;99.90;;;;;;5119110;28;20174;-80
2022/03/17 14:36:39;;;;;;;43.37;26.67;;;8.60;99.90;;;;;;5117958;28;20384;-80
2022/03/17 14:39:08;;;;;;;43.40;27.23;;;8.50;99.90;;;;;;5119155;28;20174;-80
2022/03/17 14:41:35;;;;;;;43.23;28.13;;;8.50;99.90;;;;;;5117909;28;20183;-80
2022/03/17 14:44:01;;;;;;;43.20;27.53;;;8.50;99.90;;;;;;5118567;28;20202;-80
2022/03/17 14:46:27;;;;;;;35.53;25.07;;;8.50;99.90;;;;;;5118911;27;20223;-80
2022/03/17 14:48:58;;;;;;;41.70;26.37;;;8.40;99.90;;;;;;5118595;28;20538;-80
2022/03/17 14:51:24;;;;;;;41.17;25.80;;;8.30;99.90;;;;;;5118115;28;20179;-81
2022/03/17 14:53:51;;;;;;;39.33;27.27;;;8.20;99.90;;;;;;5118916;28;20178;-80
2022/03/17 14:56:19;;;;;;;45.27;31.53;;;8.20;99.90;;;;;;5119535;28;20270;-80
2022/03/17 14:58:46;;;;;;;41.67;28.90;;;8.20;99.90;;;;;;5119232;28;20581;-80
2022/03/17 15:01:15;;;;;;;42.33;28.97;;;8.20;99.90;;;;;;5118933;28;20179;-80
2022/03/17 15:03:42;;;;;;;43.80;30.07;;;8.30;99.90;;;;;;5118219;28;20501;-80
2022/03/17 15:06:09;;;;;;;39.03;28.50;;;8.20;99.90;;;;;;5117908;28;20272;-80
2022/03/17 15:08:36;;;;;;;43.50;29.53;;;8.20;99.90;;;;;;5118946;28;20199;-80
2022/03/17 15:11:03;;;;;;;39.50;28.03;;;8.20;99.90;;;;;;5118280;28;20178;-80
2022/03/17 15:13:29;;;;;;;39.40;27.73;;;8.10;99.90;;;;;;5119069;28;20175;-80
2022/03/17 15:15:54;;;;;;;47.57;32.23;;;8.00;99.90;;;;;;5120292;28;20260;-80
2022/03/17 15:18:20;;;;;;;42.90;30.83;;;7.90;99.90;;;;;;5119900;28;20218;-80
2022/03/17 15:20:46;;;;;;;40.10;28.80;;;7.90;99.90;;;;;;5117795;28;20180;-80
2022/03/17 15:23:11;;;;;;;41.57;28.97;;;7.90;99.90;;;;;;5117633;28;20163;-80
2022/03/17 15:25:37;;;;;;;40.37;28.37;;;7.90;99.90;;;;;;5118301;28;20573;-80
2022/03/17 15:30:48;;;;;;;40.37;27.83;;;7.90;99.90;;;;;;5120026;28;20216;-80
2022/03/17 15:33:14;;;;;;;40.23;28.87;;;7.90;99.90;;;;;;5116185;28;20177;-80
2022/03/17 15:35:40;;;;;;;38.57;28.87;;;7.80;99.90;;;;;;5117773;28;20204;-80
2022/03/17 15:38:07;;;;;;;43.73;28.37;;;7.70;99.90;;;;;;5115964;28;20239;-80
2022/03/17 15:40:33;;;;;;;43.00;27.17;;;7.70;99.90;;;;;;5116058;28;20235;-80
2022/03/17 15:43:03;;;;;;;43.70;30.60;;;7.70;99.90;;;;;;5116175;28;20183;-80
2022/03/17 15:45:29;;;;;;;39.80;29.57;;;7.60;99.90;;;;;;5116081;28;20203;-80
2022/03/17 15:47:55;;;;;;;40.27;27.97;;;7.60;99.90;;;;;;5116050;28;20198;-80
2022/03/17 15:50:23;;;;;;;47.53;32.37;;;7.60;99.90;;;;;;5118002;28;20672;-80
2022/03/17 15:52:49;;;;;;;47.33;36.13;;;7.50;99.90;;;;;;5115869;28;20174;-80
2022/03/17 15:55:16;;;;;;;52.20;38.10;;;7.50;99.90;;;;;;5116179;28;20656;-80
2022/03/17 15:57:42;;;;;;;83.77;59.03;;;7.50;99.90;;;;;;5116396;28;20245;-80
2022/03/17 16:00:08;;;;;;;137.43;99.53;;;7.50;99.90;;;;;;5116327;28;20657;-80
2022/03/17 16:02:34;;;;;;;58.03;39.03;;;7.50;99.90;;;;;;5117569;28;20235;-80
2022/03/17 16:05:00;;;;;;;46.83;31.90;;;7.50;99.90;;;;;;5117754;28;20202;-81
2022/03/17 16:07:25;;;;;;;43.93;30.47;;;7.50;99.90;;;;;;5116363;28;20580;-80
2022/03/17 16:15:21;;;;;;;45.77;31.27;;;7.40;99.90;;;;;;5117094;28;20200;-80
2022/03/17 16:17:47;;;;;;;44.80;30.27;;;7.40;99.90;;;;;;5115637;28;20186;-80
2022/03/17 16:20:13;;;;;;;45.77;31.77;;;7.40;99.90;;;;;;5115203;28;20286;-79
2022/03/17 16:22:42;;;;;;;43.40;28.67;;;7.40;99.90;;;;;;5115010;28;20231;-80
2022/03/17 16:25:09;;;;;;;45.80;29.67;;;7.30;99.90;;;;;;5115507;28;20571;-79
2022/03/17 16:27:37;;;;;;;41.43;29.07;;;7.30;99.90;;;;;;5116402;28;20244;-80
2022/03/17 16:30:07;;;;;;;44.83;31.33;;;7.20;99.90;;;;;;5115138;28;20181;-80
2022/03/17 16:32:37;;;;;;;45.47;29.83;;;7.30;99.90;;;;;;5114812;28;20180;-80
2022/03/17 16:35:04;;;;;;;42.50;28.77;;;7.20;99.90;;;;;;5115587;28;20197;-77
2022/03/17 16:37:29;;;;;;;42.53;30.57;;;7.10;99.90;;;;;;5113217;28;20664;-77
2022/03/17 16:39:55;;;;;;;43.60;29.53;;;7.00;99.90;;;;;;5113886;28;20194;-76
2022/03/17 16:42:21;;;;;;;42.43;28.73;;;7.00;99.90;;;;;;5114257;28;20199;-77
2022/03/17 16:44:46;;;;;;;43.93;29.73;;;7.00;99.90;;;;;;5113429;28;20718;-78
2022/03/17 16:47:12;;;;;;;40.00;28.10;;;6.90;99.90;;;;;;5115491;28;20663;-78
2022/03/17 16:49:38;;;;;;;44.53;28.90;;;6.80;99.90;;;;;;5117252;28;20515;-78
2022/03/17 16:52:07;;;;;;;47.20;32.33;;;6.80;99.90;;;;;;5119292;28;20177;-79
2022/03/17 16:54:34;;;;;;;43.63;30.77;;;6.80;99.90;;;;;;5118896;28;20173;-79